sensor_id;sensor_type;location;lat;lon;timestamp;pressure;altitude;pressure_sealevel;temperature;humidity
56142;BME280;42018;48.588;10.836;2023-08-08T00:01:27;96961.09;;;12.65;78.78
56142;BME280;42018;48.588;10.836;2023-08-08T00:04:13;96960.06;;;12.66;78.38
56142;BME280;42018;48.588;10.836;2023-08-08T00:07:00;96955.03;;;12.60;78.62
56142;BME280;42018;48.588;10.836;2023-08-08T00:13:45;96955.00;;;12.70;77.94
56142;BME280;42018;48.588;10.836;2023-08-08T00:16:30;96951.16;;;12.86;77.62
56142;BME280;42018;48.588;10.836;2023-08-08T00:19:32;96947.59;;;12.52;78.67
56142;BME280;42018;48.588;10.836;2023-08-08T00:22:17;96952.59;;;12.68;78.25
56142;BME280;42018;48.588;10.836;2023-08-08T00:25:12;96943.38;;;12.56;78.38
56142;BME280;42018;48.588;10.836;2023-08-08T00:27:58;96949.69;;;12.65;78.54
56142;BME280;42018;48.588;10.836;2023-08-08T00:31:04;96950.28;;;12.46;78.98
56142;BME280;42018;48.588;10.836;2023-08-08T00:33:50;96944.97;;;12.46;79.49
56142;BME280;42018;48.588;10.836;2023-08-08T00:36:56;96945.56;;;12.33;79.78
56142;BME280;42018;48.588;10.836;2023-08-08T00:39:42;96945.47;;;12.54;79.59
56142;BME280;42018;48.588;10.836;2023-08-08T00:42:33;96945.31;;;12.30;80.33
56142;BME280;42018;48.588;10.836;2023-08-08T00:49:21;96935.97;;;12.37;79.93
56142;BME280;42018;48.588;10.836;2023-08-08T00:56:22;96942.44;;;12.11;81.38
56142;BME280;42018;48.588;10.836;2023-08-08T00:59:08;96937.16;;;12.01;82.32
56142;BME280;42018;48.588;10.836;2023-08-08T01:01:59;96933.91;;;12.19;81.98
56142;BME280;42018;48.588;10.836;2023-08-08T01:04:44;96938.97;;;12.15;81.88
56142;BME280;42018;48.588;10.836;2023-08-08T01:15:07;96934.22;;;12.02;82.90
56142;BME280;42018;48.588;10.836;2023-08-08T01:21:48;96939.25;;;12.09;82.24
56142;BME280;42018;48.588;10.836;2023-08-08T01:24:36;96938.19;;;12.05;82.33
56142;BME280;42018;48.588;10.836;2023-08-08T01:31:47;96929.66;;;12.13;81.98
56142;BME280;42018;48.588;10.836;2023-08-08T01:34:48;96930.25;;;12.10;82.28
56142;BME280;42018;48.588;10.836;2023-08-08T01:37:41;96932.88;;;12.10;82.08
56142;BME280;42018;48.588;10.836;2023-08-08T01:40:47;96929.38;;;12.19;81.35
56142;BME280;42018;48.588;10.836;2023-08-08T01:47:30;96923.00;;;12.26;80.95
56142;BME280;42018;48.588;10.836;2023-08-08T01:50:16;96923.03;;;12.20;81.24
56142;BME280;42018;48.588;10.836;2023-08-08T01:57:18;96914.47;;;12.34;80.57
56142;BME280;42018;48.588;10.836;2023-08-08T02:00:17;96906.28;;;12.25;80.80
56142;BME280;42018;48.588;10.836;2023-08-08T02:03:34;96918.03;;;12.04;81.86
56142;BME280;42018;48.588;10.836;2023-08-08T02:10:05;96913.28;;;11.90;82.60
56142;BME280;42018;48.588;10.836;2023-08-08T02:13:08;96906.88;;;11.91;82.76
56142;BME280;42018;48.588;10.836;2023-08-08T02:16:20;96904.97;;;12.12;81.08
56142;BME280;42018;48.588;10.836;2023-08-08T02:19:06;96904.94;;;12.28;80.83
56142;BME280;42018;48.588;10.836;2023-08-08T02:29:29;96901.75;;;12.26;80.53
56142;BME280;42018;48.588;10.836;2023-08-08T02:36:09;96909.75;;;12.20;80.40
56142;BME280;42018;48.588;10.836;2023-08-08T02:38:55;96896.66;;;12.39;79.97
56142;BME280;42018;48.588;10.836;2023-08-08T02:42:07;96909.50;;;12.12;80.29
56142;BME280;42018;48.588;10.836;2023-08-08T02:44:53;96910.25;;;12.22;80.90
56142;BME280;42018;48.588;10.836;2023-08-08T02:47:42;96906.31;;;12.15;80.48
56142;BME280;42018;48.588;10.836;2023-08-08T02:50:47;96902.50;;;12.36;80.17
56142;BME280;42018;48.588;10.836;2023-08-08T02:53:59;96896.69;;;12.29;79.36
56142;BME280;42018;48.588;10.836;2023-08-08T02:56:45;96897.50;;;12.25;80.28
56142;BME280;42018;48.588;10.836;2023-08-08T02:59:43;96892.44;;;12.28;79.66
56142;BME280;42018;48.588;10.836;2023-08-08T03:02:29;96898.53;;;12.34;79.78
56142;BME280;42018;48.588;10.836;2023-08-08T03:05:34;96897.50;;;12.25;79.91
56142;BME280;42018;48.588;10.836;2023-08-08T03:19:36;96897.25;;;12.21;79.01
56142;BME280;42018;48.588;10.836;2023-08-08T03:22:31;96901.00;;;12.15;79.37
56142;BME280;42018;48.588;10.836;2023-08-08T03:29:28;96890.59;;;12.29;78.61
56142;BME280;42018;48.588;10.836;2023-08-08T03:32:14;96881.75;;;12.43;77.97
56142;BME280;42018;48.588;10.836;2023-08-08T03:42:18;96888.59;;;12.55;77.04
56142;BME280;42018;48.588;10.836;2023-08-08T04:12:01;96907.16;;;12.65;76.49
56142;BME280;42018;48.588;10.836;2023-08-08T04:15:12;96912.50;;;12.60;76.41
56142;BME280;42018;48.588;10.836;2023-08-08T04:17:58;96908.19;;;12.74;76.46
56142;BME280;42018;48.588;10.836;2023-08-08T04:24:32;96914.59;;;12.68;75.90
56142;BME280;42018;48.588;10.836;2023-08-08T04:31:14;96913.25;;;12.65;75.71
56142;BME280;42018;48.588;10.836;2023-08-08T04:45:22;96911.63;;;12.69;75.13
56142;BME280;42018;48.588;10.836;2023-08-08T04:48:24;96910.28;;;12.77;74.92
56142;BME280;42018;48.588;10.836;2023-08-08T04:55:32;96905.53;;;12.69;74.69
56142;BME280;42018;48.588;10.836;2023-08-08T04:58:31;96910.88;;;12.64;75.02
56142;BME280;42018;48.588;10.836;2023-08-08T05:01:25;96913.50;;;12.69;74.62
56142;BME280;42018;48.588;10.836;2023-08-08T05:04:11;96917.00;;;12.64;75.55
56142;BME280;42018;48.588;10.836;2023-08-08T05:29:09;96904.22;;;13.11;73.41
56142;BME280;42018;48.588;10.836;2023-08-08T05:39:23;96912.25;;;13.06;72.30
56142;BME280;42018;48.588;10.836;2023-08-08T05:42:11;96894.50;;;13.30;71.87
56142;BME280;42018;48.588;10.836;2023-08-08T05:44:58;96900.78;;;13.45;71.59
56142;BME280;42018;48.588;10.836;2023-08-08T05:51:23;96904.66;;;13.57;72.17
56142;BME280;42018;48.588;10.836;2023-08-08T05:57:50;96898.13;;;13.74;71.61
56142;BME280;42018;48.588;10.836;2023-08-08T06:00:36;96906.00;;;13.55;71.47
56142;BME280;42018;48.588;10.836;2023-08-08T06:03:21;96913.78;;;13.80;71.05
56142;BME280;42018;48.588;10.836;2023-08-08T06:06:07;96911.75;;;13.96;70.12
56142;BME280;42018;48.588;10.836;2023-08-08T06:08:55;96913.56;;;14.01;70.22
56142;BME280;42018;48.588;10.836;2023-08-08T06:11:40;96912.25;;;14.22;69.35
56142;BME280;42018;48.588;10.836;2023-08-08T06:14:26;96916.56;;;14.18;68.98
56142;BME280;42018;48.588;10.836;2023-08-08T06:17:11;96910.56;;;14.07;68.83
56142;BME280;42018;48.588;10.836;2023-08-08T06:19:56;96905.28;;;14.26;68.87
56142;BME280;42018;48.588;10.836;2023-08-08T06:22:42;96905.03;;;14.47;68.52
56142;BME280;42018;48.588;10.836;2023-08-08T06:25:27;96902.84;;;14.30;68.19
56142;BME280;42018;48.588;10.836;2023-08-08T06:28:22;96907.00;;;14.17;68.71
56142;BME280;42018;48.588;10.836;2023-08-08T06:31:08;96906.13;;;14.22;69.07
56142;BME280;42018;48.588;10.836;2023-08-08T06:33:53;96898.31;;;14.30;68.58
56142;BME280;42018;48.588;10.836;2023-08-08T06:36:39;96903.47;;;14.22;69.06
56142;BME280;42018;48.588;10.836;2023-08-08T06:39:32;96908.53;;;14.23;69.14
56142;BME280;42018;48.588;10.836;2023-08-08T06:42:31;96911.34;;;14.32;68.23
56142;BME280;42018;48.588;10.836;2023-08-08T06:45:16;96913.00;;;14.28;69.16
56142;BME280;42018;48.588;10.836;2023-08-08T06:48:02;96910.91;;;14.01;69.44
56142;BME280;42018;48.588;10.836;2023-08-08T06:50:47;96908.34;;;14.14;69.78
56142;BME280;42018;48.588;10.836;2023-08-08T06:53:33;96906.13;;;13.98;70.19
56142;BME280;42018;48.588;10.836;2023-08-08T06:56:18;96904.25;;;14.22;70.01
56142;BME280;42018;48.588;10.836;2023-08-08T06:59:04;96906.88;;;14.03;71.10
56142;BME280;42018;48.588;10.836;2023-08-08T07:01:51;96901.44;;;14.13;70.54
56142;BME280;42018;48.588;10.836;2023-08-08T07:04:37;96898.72;;;14.19;70.52
56142;BME280;42018;48.588;10.836;2023-08-08T07:07:22;96895.13;;;14.04;69.38
56142;BME280;42018;48.588;10.836;2023-08-08T07:10:08;96901.22;;;14.34;69.94
56142;BME280;42018;48.588;10.836;2023-08-08T07:12:56;96884.19;;;14.54;68.99
56142;BME280;42018;48.588;10.836;2023-08-08T07:15:42;96884.19;;;14.54;69.73
56142;BME280;42018;48.588;10.836;2023-08-08T07:18:27;96881.25;;;14.74;68.26
56142;BME280;42018;48.588;10.836;2023-08-08T07:21:13;96870.72;;;14.64;67.98
56142;BME280;42018;48.588;10.836;2023-08-08T07:23:58;96872.94;;;14.76;68.43
56142;BME280;42018;48.588;10.836;2023-08-08T07:26:43;96869.97;;;15.15;67.09
56142;BME280;42018;48.588;10.836;2023-08-08T07:29:29;96876.13;;;15.16;67.53
56142;BME280;42018;48.588;10.836;2023-08-08T07:32:14;96864.50;;;15.39;66.41
56142;BME280;42018;48.588;10.836;2023-08-08T07:34:59;96868.38;;;15.47;65.52
56142;BME280;42018;48.588;10.836;2023-08-08T07:37:47;96862.75;;;15.48;66.37
56142;BME280;42018;48.588;10.836;2023-08-08T07:40:33;96865.91;;;15.69;65.53
56142;BME280;42018;48.588;10.836;2023-08-08T07:43:18;96872.06;;;15.84;64.01
56142;BME280;42018;48.588;10.836;2023-08-08T07:46:05;96861.34;;;16.11;64.05
56142;BME280;42018;48.588;10.836;2023-08-08T07:48:51;96874.22;;;16.37;63.94
56142;BME280;42018;48.588;10.836;2023-08-08T07:51:36;96865.19;;;16.33;62.93
56142;BME280;42018;48.588;10.836;2023-08-08T07:54:22;96871.25;;;16.38;62.07
56142;BME280;42018;48.588;10.836;2023-08-08T07:57:07;96877.97;;;16.36;62.18
56142;BME280;42018;48.588;10.836;2023-08-08T07:59:52;96863.59;;;16.59;62.91
56142;BME280;42018;48.588;10.836;2023-08-08T08:02:49;96871.09;;;16.71;61.04
56142;BME280;42018;48.588;10.836;2023-08-08T08:05:35;96863.91;;;16.94;61.21
56142;BME280;42018;48.588;10.836;2023-08-08T08:08:22;96866.47;;;16.99;61.04
56142;BME280;42018;48.588;10.836;2023-08-08T08:11:29;96865.34;;;16.78;60.85
56142;BME280;42018;48.588;10.836;2023-08-08T08:14:15;96857.47;;;17.17;59.07
56142;BME280;42018;48.588;10.836;2023-08-08T08:17:21;96853.16;;;17.30;59.99
56142;BME280;42018;48.588;10.836;2023-08-08T08:20:07;96846.81;;;17.57;57.73
56142;BME280;42018;48.588;10.836;2023-08-08T08:22:59;96854.63;;;17.36;56.96
56142;BME280;42018;48.588;10.836;2023-08-08T08:25:45;96853.19;;;17.39;57.47
56142;BME280;42018;48.588;10.836;2023-08-08T08:28:30;96843.94;;;17.45;58.41
56142;BME280;42018;48.588;10.836;2023-08-08T08:31:16;96843.72;;;17.33;57.65
56142;BME280;42018;48.588;10.836;2023-08-08T08:34:01;96833.16;;;17.59;58.01
56142;BME280;42018;48.588;10.836;2023-08-08T08:36:47;96830.53;;;17.45;57.76
56142;BME280;42018;48.588;10.836;2023-08-08T08:39:32;96841.72;;;17.16;58.60
56142;BME280;42018;48.588;10.836;2023-08-08T08:42:42;96836.09;;;17.48;58.11
56142;BME280;42018;48.588;10.836;2023-08-08T08:45:29;96821.94;;;17.88;56.45
56142;BME280;42018;48.588;10.836;2023-08-08T08:48:15;96840.81;;;18.23;56.33
56142;BME280;42018;48.588;10.836;2023-08-08T08:51:02;96830.88;;;18.23;55.58
56142;BME280;42018;48.588;10.836;2023-08-08T08:53:48;96822.53;;;18.42;55.66
56142;BME280;42018;48.588;10.836;2023-08-08T08:56:33;96829.03;;;18.67;54.87
56142;BME280;42018;48.588;10.836;2023-08-08T08:59:19;96826.75;;;18.17;53.28
56142;BME280;42018;48.588;10.836;2023-08-08T09:02:04;96824.53;;;18.10;54.18
56142;BME280;42018;48.588;10.836;2023-08-08T09:04:59;96818.59;;;18.31;52.92
56142;BME280;42018;48.588;10.836;2023-08-08T09:07:47;96817.97;;;18.60;52.99
56142;BME280;42018;48.588;10.836;2023-08-08T09:10:35;96820.66;;;18.42;52.74
56142;BME280;42018;48.588;10.836;2023-08-08T09:13:21;96817.09;;;18.90;53.56
56142;BME280;42018;48.588;10.836;2023-08-08T09:16:08;96817.25;;;18.77;51.83
56142;BME280;42018;48.588;10.836;2023-08-08T09:18:54;96812.19;;;18.93;51.64
56142;BME280;42018;48.588;10.836;2023-08-08T09:22:21;96809.28;;;19.24;53.15
56142;BME280;42018;48.588;10.836;2023-08-08T09:35:18;96819.25;;;18.62;52.38
56142;BME280;42018;48.588;10.836;2023-08-08T09:38:07;96816.13;;;19.04;52.74
56142;BME280;42018;48.588;10.836;2023-08-08T09:41:26;96807.38;;;18.46;52.86
56142;BME280;42018;48.588;10.836;2023-08-08T09:48:03;96805.84;;;18.62;51.71
56142;BME280;42018;48.588;10.836;2023-08-08T09:50:50;96807.75;;;19.14;52.18
56142;BME280;42018;48.588;10.836;2023-08-08T09:53:38;96806.09;;;19.39;52.04
56142;BME280;42018;48.588;10.836;2023-08-08T09:57:06;96804.78;;;19.63;51.04
56142;BME280;42018;48.588;10.836;2023-08-08T10:00:08;96794.19;;;19.49;50.83
56142;BME280;42018;48.588;10.836;2023-08-08T10:03:03;96788.09;;;19.31;50.46
56142;BME280;42018;48.588;10.836;2023-08-08T10:05:51;96797.66;;;19.58;51.08
56142;BME280;42018;48.588;10.836;2023-08-08T10:08:56;96790.63;;;19.27;50.59
56142;BME280;42018;48.588;10.836;2023-08-08T10:12:01;96791.03;;;19.55;50.73
56142;BME280;42018;48.588;10.836;2023-08-08T10:15:00;96791.25;;;19.33;50.98
56142;BME280;42018;48.588;10.836;2023-08-08T10:17:56;96794.06;;;19.45;49.01
56142;BME280;42018;48.588;10.836;2023-08-08T10:20:48;96790.28;;;19.93;51.26
56142;BME280;42018;48.588;10.836;2023-08-08T10:23:39;96789.16;;;19.94;49.01
56142;BME280;42018;48.588;10.836;2023-08-08T10:26:25;96791.44;;;19.19;50.17
56142;BME280;42018;48.588;10.836;2023-08-08T10:29:18;96789.59;;;18.94;51.23
56142;BME280;42018;48.588;10.836;2023-08-08T10:32:05;96788.13;;;19.13;50.45
56142;BME280;42018;48.588;10.836;2023-08-08T10:34:55;96797.50;;;18.81;51.00
56142;BME280;42018;48.588;10.836;2023-08-08T10:37:52;96779.59;;;19.29;51.13
56142;BME280;42018;48.588;10.836;2023-08-08T10:40:42;96782.66;;;19.48;50.24
56142;BME280;42018;48.588;10.836;2023-08-08T10:43:29;96777.84;;;19.80;49.80
56142;BME280;42018;48.588;10.836;2023-08-08T10:46:23;96785.34;;;19.95;50.40
56142;BME280;42018;48.588;10.836;2023-08-08T10:49:11;96774.75;;;20.20;50.14
56142;BME280;42018;48.588;10.836;2023-08-08T10:52:02;96778.41;;;19.94;49.94
56142;BME280;42018;48.588;10.836;2023-08-08T10:54:52;96772.56;;;19.92;48.78
56142;BME280;42018;48.588;10.836;2023-08-08T10:57:40;96769.38;;;20.20;49.91
56142;BME280;42018;48.588;10.836;2023-08-08T11:00:32;96763.03;;;20.45;48.27
56142;BME280;42018;48.588;10.836;2023-08-08T11:03:24;96762.19;;;20.32;48.98
56142;BME280;42018;48.588;10.836;2023-08-08T11:06:13;96752.84;;;20.30;48.36
56142;BME280;42018;48.588;10.836;2023-08-08T11:09:05;96760.19;;;19.61;50.28
56142;BME280;42018;48.588;10.836;2023-08-08T11:11:51;96762.88;;;20.00;49.91
56142;BME280;42018;48.588;10.836;2023-08-08T11:14:36;96761.13;;;20.67;47.79
56142;BME280;42018;48.588;10.836;2023-08-08T11:17:21;96763.63;;;20.93;46.42
56142;BME280;42018;48.588;10.836;2023-08-08T11:20:07;96747.97;;;20.02;47.66
56142;BME280;42018;48.588;10.836;2023-08-08T11:22:54;96740.56;;;20.41;49.31
56142;BME280;42018;48.588;10.836;2023-08-08T11:25:42;96751.00;;;20.85;46.44
56142;BME280;42018;48.588;10.836;2023-08-08T11:28:31;96746.72;;;19.70;46.84
56142;BME280;42018;48.588;10.836;2023-08-08T11:31:18;96751.53;;;19.47;47.62
56142;BME280;42018;48.588;10.836;2023-08-08T11:34:04;96755.06;;;19.39;48.45
56142;BME280;42018;48.588;10.836;2023-08-08T11:36:50;96761.06;;;19.83;48.13
56142;BME280;42018;48.588;10.836;2023-08-08T11:39:36;96756.66;;;20.08;47.59
56142;BME280;42018;48.588;10.836;2023-08-08T11:42:22;96752.19;;;20.33;48.47
56142;BME280;42018;48.588;10.836;2023-08-08T11:45:13;96748.13;;;20.48;48.14
56142;BME280;42018;48.588;10.836;2023-08-08T11:47:59;96753.38;;;20.23;47.79
56142;BME280;42018;48.588;10.836;2023-08-08T11:50:46;96755.06;;;20.07;47.69
56142;BME280;42018;48.588;10.836;2023-08-08T11:53:32;96746.84;;;19.74;48.18
56142;BME280;42018;48.588;10.836;2023-08-08T11:56:21;96744.50;;;20.02;47.32
56142;BME280;42018;48.588;10.836;2023-08-08T11:59:07;96742.22;;;20.13;48.06
56142;BME280;42018;48.588;10.836;2023-08-08T12:01:53;96731.19;;;20.89;46.58
56142;BME280;42018;48.588;10.836;2023-08-08T12:04:38;96723.94;;;21.14;44.41
56142;BME280;42018;48.588;10.836;2023-08-08T12:07:24;96717.41;;;21.15;45.70
56142;BME280;42018;48.588;10.836;2023-08-08T12:10:21;96720.66;;;21.09;43.30
56142;BME280;42018;48.588;10.836;2023-08-08T12:13:07;96733.16;;;21.25;43.46
56142;BME280;42018;48.588;10.836;2023-08-08T12:15:54;96721.44;;;21.67;43.45
56142;BME280;42018;48.588;10.836;2023-08-08T12:18:40;96717.25;;;21.94;43.13
56142;BME280;42018;48.588;10.836;2023-08-08T12:21:26;96709.63;;;21.96;42.29
56142;BME280;42018;48.588;10.836;2023-08-08T12:24:11;96713.13;;;21.47;41.40
56142;BME280;42018;48.588;10.836;2023-08-08T12:27:08;96708.63;;;21.51;41.22
56142;BME280;42018;48.588;10.836;2023-08-08T12:29:54;96711.78;;;21.08;39.68
56142;BME280;42018;48.588;10.836;2023-08-08T12:32:42;96725.47;;;20.70;41.84
56142;BME280;42018;48.588;10.836;2023-08-08T12:35:28;96715.31;;;21.33;40.92
56142;BME280;42018;48.588;10.836;2023-08-08T12:38:13;96714.75;;;22.01;42.27
56142;BME280;42018;48.588;10.836;2023-08-08T12:41:01;96721.44;;;21.79;40.42
56142;BME280;42018;48.588;10.836;2023-08-08T12:43:46;96722.66;;;21.82;40.59
56142;BME280;42018;48.588;10.836;2023-08-08T12:46:31;96730.19;;;21.64;39.62
56142;BME280;42018;48.588;10.836;2023-08-08T12:49:17;96716.03;;;21.55;38.95
56142;BME280;42018;48.588;10.836;2023-08-08T12:52:05;96715.31;;;22.31;37.25
56142;BME280;42018;48.588;10.836;2023-08-08T12:54:51;96712.41;;;21.87;36.56
56142;BME280;42018;48.588;10.836;2023-08-08T12:57:36;96704.94;;;22.33;38.89
56142;BME280;42018;48.588;10.836;2023-08-08T13:00:22;96710.91;;;22.67;37.37
56142;BME280;42018;48.588;10.836;2023-08-08T13:03:08;96716.69;;;23.25;36.59
56142;BME280;42018;48.588;10.836;2023-08-08T13:05:55;96705.38;;;23.67;37.06
56142;BME280;42018;48.588;10.836;2023-08-08T13:08:40;96705.16;;;23.92;34.78
56142;BME280;42018;48.588;10.836;2023-08-08T13:11:26;96710.75;;;23.83;35.41
56142;BME280;42018;48.588;10.836;2023-08-08T13:14:12;96698.97;;;23.43;33.52
56142;BME280;42018;48.588;10.836;2023-08-08T13:16:57;96693.75;;;23.66;33.30
56142;BME280;42018;48.588;10.836;2023-08-08T13:19:42;96685.44;;;23.75;33.82
56142;BME280;42018;48.588;10.836;2023-08-08T13:22:28;96695.59;;;23.47;35.29
56142;BME280;42018;48.588;10.836;2023-08-08T13:25:13;96698.72;;;23.80;32.46
56142;BME280;42018;48.588;10.836;2023-08-08T13:28:00;96688.56;;;23.93;33.27
56142;BME280;42018;48.588;10.836;2023-08-08T13:30:46;96683.97;;;24.13;32.32
56142;BME280;42018;48.588;10.836;2023-08-08T13:33:31;96679.44;;;23.50;32.44
56142;BME280;42018;48.588;10.836;2023-08-08T13:36:16;96680.06;;;22.84;34.43
56142;BME280;42018;48.588;10.836;2023-08-08T13:39:02;96692.56;;;22.32;34.11
56142;BME280;42018;48.588;10.836;2023-08-08T13:41:48;96688.22;;;22.56;34.93
56142;BME280;42018;48.588;10.836;2023-08-08T13:44:33;96688.81;;;21.84;35.05
56142;BME280;42018;48.588;10.836;2023-08-08T13:47:19;96686.56;;;21.86;34.97
56142;BME280;42018;48.588;10.836;2023-08-08T13:50:06;96682.28;;;22.10;33.73
56142;BME280;42018;48.588;10.836;2023-08-08T13:52:51;96668.56;;;22.71;33.99
56142;BME280;42018;48.588;10.836;2023-08-08T13:55:38;96668.75;;;22.34;34.65
56142;BME280;42018;48.588;10.836;2023-08-08T13:58:25;96678.53;;;22.27;34.87
56142;BME280;42018;48.588;10.836;2023-08-08T14:01:10;96664.75;;;22.04;34.00
56142;BME280;42018;48.588;10.836;2023-08-08T14:03:56;96668.28;;;22.60;35.01
56142;BME280;42018;48.588;10.836;2023-08-08T14:06:41;96663.59;;;22.73;34.40
56142;BME280;42018;48.588;10.836;2023-08-08T14:09:27;96668.72;;;23.06;34.40
56142;BME280;42018;48.588;10.836;2023-08-08T14:12:12;96656.25;;;23.17;33.92
56142;BME280;42018;48.588;10.836;2023-08-08T14:14:58;96660.38;;;23.27;33.77
56142;BME280;42018;48.588;10.836;2023-08-08T14:17:43;96666.19;;;22.98;34.36
56142;BME280;42018;48.588;10.836;2023-08-08T14:20:30;96659.28;;;22.84;32.84
56142;BME280;42018;48.588;10.836;2023-08-08T14:23:15;96656.88;;;22.95;33.15
56142;BME280;42018;48.588;10.836;2023-08-08T14:26:01;96661.22;;;23.00;33.40
56142;BME280;42018;48.588;10.836;2023-08-08T14:28:46;96649.81;;;23.22;32.82
56142;BME280;42018;48.588;10.836;2023-08-08T14:31:31;96659.66;;;23.14;31.38
56142;BME280;42018;48.588;10.836;2023-08-08T14:34:17;96656.75;;;23.55;31.35
56142;BME280;42018;48.588;10.836;2023-08-08T14:37:02;96658.34;;;23.56;31.59
56142;BME280;42018;48.588;10.836;2023-08-08T14:39:47;96663.91;;;23.47;32.86
56142;BME280;42018;48.588;10.836;2023-08-08T14:42:33;96656.53;;;23.28;32.96
56142;BME280;42018;48.588;10.836;2023-08-08T14:45:18;96659.94;;;23.41;33.57
56142;BME280;42018;48.588;10.836;2023-08-08T14:48:04;96658.16;;;23.80;33.11
56142;BME280;42018;48.588;10.836;2023-08-08T14:50:50;96672.63;;;23.56;31.50
56142;BME280;42018;48.588;10.836;2023-08-08T14:53:35;96664.28;;;23.46;33.00
56142;BME280;42018;48.588;10.836;2023-08-08T14:56:23;96658.53;;;23.00;32.13
56142;BME280;42018;48.588;10.836;2023-08-08T14:59:10;96660.66;;;22.78;32.64
56142;BME280;42018;48.588;10.836;2023-08-08T15:01:55;96657.50;;;22.76;33.16
56142;BME280;42018;48.588;10.836;2023-08-08T15:04:41;96662.03;;;22.44;32.72
56142;BME280;42018;48.588;10.836;2023-08-08T15:07:26;96663.28;;;22.90;33.60
56142;BME280;42018;48.588;10.836;2023-08-08T15:10:12;96662.59;;;22.93;33.38
56142;BME280;42018;48.588;10.836;2023-08-08T15:12:57;96663.78;;;22.80;33.36
56142;BME280;42018;48.588;10.836;2023-08-08T15:15:42;96665.19;;;22.74;33.79
56142;BME280;42018;48.588;10.836;2023-08-08T15:18:28;96661.53;;;22.82;34.05
56142;BME280;42018;48.588;10.836;2023-08-08T15:21:13;96661.56;;;22.98;33.79
56142;BME280;42018;48.588;10.836;2023-08-08T15:23:58;96664.84;;;22.91;33.19
56142;BME280;42018;48.588;10.836;2023-08-08T15:26:44;96662.78;;;23.01;34.67
56142;BME280;42018;48.588;10.836;2023-08-08T15:29:29;96660.56;;;22.90;35.04
56142;BME280;42018;48.588;10.836;2023-08-08T15:32:15;96664.41;;;22.45;33.66
56142;BME280;42018;48.588;10.836;2023-08-08T15:35:00;96672.13;;;22.31;33.77
56142;BME280;42018;48.588;10.836;2023-08-08T15:37:46;96680.94;;;22.04;33.58
56142;BME280;42018;48.588;10.836;2023-08-08T15:40:31;96670.03;;;22.00;33.38
56142;BME280;42018;48.588;10.836;2023-08-08T15:43:16;96666.13;;;21.85;33.83
56142;BME280;42018;48.588;10.836;2023-08-08T15:46:04;96682.63;;;21.84;33.83
56142;BME280;42018;48.588;10.836;2023-08-08T15:48:50;96669.50;;;21.82;34.84
56142;BME280;42018;48.588;10.836;2023-08-08T15:51:35;96676.38;;;21.67;35.23
56142;BME280;42018;48.588;10.836;2023-08-08T15:54:21;96674.25;;;21.61;35.75
56142;BME280;42018;48.588;10.836;2023-08-08T15:57:06;96668.28;;;21.67;36.30
56142;BME280;42018;48.588;10.836;2023-08-08T15:59:52;96675.81;;;21.62;36.43
56142;BME280;42018;48.588;10.836;2023-08-08T16:02:37;96671.09;;;21.71;36.31
56142;BME280;42018;48.588;10.836;2023-08-08T16:05:22;96676.38;;;21.67;36.44
56142;BME280;42018;48.588;10.836;2023-08-08T16:08:08;96680.66;;;21.68;37.15
56142;BME280;42018;48.588;10.836;2023-08-08T16:10:53;96668.31;;;21.43;36.67
56142;BME280;42018;48.588;10.836;2023-08-08T16:13:39;96667.53;;;21.42;37.25
56142;BME280;42018;48.588;10.836;2023-08-08T16:16:24;96674.72;;;21.38;37.34
56142;BME280;42018;48.588;10.836;2023-08-08T16:19:09;96672.44;;;21.40;37.15
56142;BME280;42018;48.588;10.836;2023-08-08T16:21:56;96675.38;;;21.47;37.94
56142;BME280;42018;48.588;10.836;2023-08-08T16:24:42;96676.47;;;21.34;37.85
56142;BME280;42018;48.588;10.836;2023-08-08T16:27:27;96678.84;;;21.48;38.28
56142;BME280;42018;48.588;10.836;2023-08-08T16:30:12;96681.09;;;21.58;38.92
56142;BME280;42018;48.588;10.836;2023-08-08T16:32:58;96672.00;;;21.50;39.18
56142;BME280;42018;48.588;10.836;2023-08-08T16:35:43;96683.34;;;21.44;38.77
56142;BME280;42018;48.588;10.836;2023-08-08T16:38:29;96688.19;;;21.38;38.91
56142;BME280;42018;48.588;10.836;2023-08-08T16:41:14;96697.50;;;21.41;39.33
56142;BME280;42018;48.588;10.836;2023-08-08T16:44:01;96687.72;;;21.36;40.17
56142;BME280;42018;48.588;10.836;2023-08-08T16:46:47;96692.22;;;21.44;40.08
56142;BME280;42018;48.588;10.836;2023-08-08T16:49:33;96689.75;;;21.39;40.31
56142;BME280;42018;48.588;10.836;2023-08-08T16:52:18;96692.50;;;21.31;40.21
56142;BME280;42018;48.588;10.836;2023-08-08T16:55:04;96702.66;;;21.34;40.31
56142;BME280;42018;48.588;10.836;2023-08-08T16:57:50;96702.19;;;21.32;40.50
56142;BME280;42018;48.588;10.836;2023-08-08T17:00:35;96708.34;;;21.32;40.74
56142;BME280;42018;48.588;10.836;2023-08-08T17:03:21;96705.53;;;21.28;40.66
56142;BME280;42018;48.588;10.836;2023-08-08T17:06:07;96706.69;;;21.27;40.62
56142;BME280;42018;48.588;10.836;2023-08-08T17:08:52;96708.34;;;21.32;40.12
56142;BME280;42018;48.588;10.836;2023-08-08T17:11:37;96706.78;;;21.31;40.61
56142;BME280;42018;48.588;10.836;2023-08-08T17:14:23;96705.34;;;21.34;40.81
56142;BME280;42018;48.588;10.836;2023-08-08T17:17:09;96719.59;;;21.34;41.34
56142;BME280;42018;48.588;10.836;2023-08-08T17:19:54;96712.19;;;21.31;41.41
56142;BME280;42018;48.588;10.836;2023-08-08T17:22:40;96709.38;;;21.27;41.67
56142;BME280;42018;48.588;10.836;2023-08-08T17:25:25;96715.75;;;21.11;42.99
56142;BME280;42018;48.588;10.836;2023-08-08T17:28:10;96716.63;;;21.15;43.37
56142;BME280;42018;48.588;10.836;2023-08-08T17:30:56;96715.63;;;21.07;42.95
56142;BME280;42018;48.588;10.836;2023-08-08T17:33:41;96720.22;;;21.19;43.39
56142;BME280;42018;48.588;10.836;2023-08-08T17:36:27;96717.78;;;21.14;43.99